sensor_id;sensor_type;location;lat;lon;timestamp;pressure;altitude;pressure_sealevel;temperature
27826;BMP280;15077;49.704;9.908;2023-04-15T00:00:14;97213.34;;;12.76
27826;BMP280;15077;49.704;9.908;2023-04-15T00:02:42;97210.78;;;12.76
27826;BMP280;15077;49.704;9.908;2023-04-15T00:05:09;97207.72;;;12.71
27826;BMP280;15077;49.704;9.908;2023-04-15T00:07:35;97208.72;;;12.69
27826;BMP280;15077;49.704;9.908;2023-04-15T00:10:01;97214.00;;;12.66
27826;BMP280;15077;49.704;9.908;2023-04-15T00:12:27;97206.47;;;12.64
27826;BMP280;15077;49.704;9.908;2023-04-15T00:14:53;97198.16;;;12.62
27826;BMP280;15077;49.704;9.908;2023-04-15T00:17:19;97199.97;;;12.60
27826;BMP280;15077;49.704;9.908;2023-04-15T00:19:45;97200.16;;;12.58
27826;BMP280;15077;49.704;9.908;2023-04-15T00:22:13;97197.72;;;12.56
27826;BMP280;15077;49.704;9.908;2023-04-15T00:24:39;97192.00;;;12.53
27826;BMP280;15077;49.704;9.908;2023-04-15T00:27:05;97192.94;;;12.52
27826;BMP280;15077;49.704;9.908;2023-04-15T00:29:32;97194.72;;;12.50
27826;BMP280;15077;49.704;9.908;2023-04-15T00:31:59;97192.38;;;12.47
27826;BMP280;15077;49.704;9.908;2023-04-15T00:34:26;97182.41;;;12.44
27826;BMP280;15077;49.704;9.908;2023-04-15T00:36:55;97177.50;;;12.41
27826;BMP280;15077;49.704;9.908;2023-04-15T00:39:22;97176.06;;;12.37
27826;BMP280;15077;49.704;9.908;2023-04-15T00:41:48;97176.34;;;12.32
27826;BMP280;15077;49.704;9.908;2023-04-15T00:44:14;97182.53;;;12.28
27826;BMP280;15077;49.704;9.908;2023-04-15T00:46:41;97171.72;;;12.25
27826;BMP280;15077;49.704;9.908;2023-04-15T00:49:07;97173.56;;;12.23
27826;BMP280;15077;49.704;9.908;2023-04-15T00:51:33;97181.28;;;12.21
27826;BMP280;15077;49.704;9.908;2023-04-15T00:54:04;97182.06;;;12.22
27826;BMP280;15077;49.704;9.908;2023-04-15T00:56:34;97175.38;;;12.21
27826;BMP280;15077;49.704;9.908;2023-04-15T00:59:01;97187.34;;;12.19
27826;BMP280;15077;49.704;9.908;2023-04-15T01:01:27;97185.72;;;12.18
27826;BMP280;15077;49.704;9.908;2023-04-15T01:03:56;97173.03;;;12.18
27826;BMP280;15077;49.704;9.908;2023-04-15T01:06:23;97193.44;;;12.16
27826;BMP280;15077;49.704;9.908;2023-04-15T01:08:49;97185.91;;;12.15
27826;BMP280;15077;49.704;9.908;2023-04-15T01:11:16;97185.91;;;12.15
27826;BMP280;15077;49.704;9.908;2023-04-15T01:13:43;97184.28;;;12.14
27826;BMP280;15077;49.704;9.908;2023-04-15T01:16:10;97185.91;;;12.15
27826;BMP280;15077;49.704;9.908;2023-04-15T01:18:38;97169.03;;;12.14
27826;BMP280;15077;49.704;9.908;2023-04-15T01:21:05;97164.06;;;12.12
27826;BMP280;15077;49.704;9.908;2023-04-15T01:23:34;97175.03;;;12.13
27826;BMP280;15077;49.704;9.908;2023-04-15T01:26:05;97174.22;;;12.12
27826;BMP280;15077;49.704;9.908;2023-04-15T01:28:34;97181.84;;;12.12
27826;BMP280;15077;49.704;9.908;2023-04-15T01:31:09;97177.56;;;12.13
27826;BMP280;15077;49.704;9.908;2023-04-15T01:33:37;97177.56;;;12.13
27826;BMP280;15077;49.704;9.908;2023-04-15T01:36:04;97173.31;;;12.13
27826;BMP280;15077;49.704;9.908;2023-04-15T01:38:32;97168.22;;;12.13
27826;BMP280;15077;49.704;9.908;2023-04-15T01:40:58;97168.16;;;12.15
27826;BMP280;15077;49.704;9.908;2023-04-15T01:43:25;97178.31;;;12.15
27826;BMP280;15077;49.704;9.908;2023-04-15T01:45:52;97168.16;;;12.15
27826;BMP280;15077;49.704;9.908;2023-04-15T01:48:18;97165.50;;;12.16
27826;BMP280;15077;49.704;9.908;2023-04-15T01:50:44;97160.53;;;12.15
27826;BMP280;15077;49.704;9.908;2023-04-15T01:53:10;97166.31;;;12.17
27826;BMP280;15077;49.704;9.908;2023-04-15T01:55:36;97158.69;;;12.17
27826;BMP280;15077;49.704;9.908;2023-04-15T01:58:02;97163.78;;;12.17
27826;BMP280;15077;49.704;9.908;2023-04-15T02:00:28;97164.56;;;12.17
27826;BMP280;15077;49.704;9.908;2023-04-15T02:02:57;97161.94;;;12.19
27826;BMP280;15077;49.704;9.908;2023-04-15T02:05:24;97166.22;;;12.18
27826;BMP280;15077;49.704;9.908;2023-04-15T02:07:50;97160.34;;;12.18
27826;BMP280;15077;49.704;9.908;2023-04-15T02:10:16;97163.78;;;12.17
27826;BMP280;15077;49.704;9.908;2023-04-15T02:12:42;97156.16;;;12.17
27826;BMP280;15077;49.704;9.908;2023-04-15T02:15:10;97162.03;;;12.17
27826;BMP280;15077;49.704;9.908;2023-04-15T02:17:36;97156.97;;;12.17
27826;BMP280;15077;49.704;9.908;2023-04-15T02:20:03;97160.34;;;12.18
27826;BMP280;15077;49.704;9.908;2023-04-15T02:22:33;97162.97;;;12.16
27826;BMP280;15077;49.704;9.908;2023-04-15T02:24:59;97158.69;;;12.17
27826;BMP280;15077;49.704;9.908;2023-04-15T02:27:25;97160.44;;;12.16
27826;BMP280;15077;49.704;9.908;2023-04-15T02:29:52;97151.97;;;12.16
27826;BMP280;15077;49.704;9.908;2023-04-15T02:32:18;97151.97;;;12.16
27826;BMP280;15077;49.704;9.908;2023-04-15T02:34:44;97151.97;;;12.16
27826;BMP280;15077;49.704;9.908;2023-04-15T02:37:13;97153.72;;;12.15
27826;BMP280;15077;49.704;9.908;2023-04-15T02:39:39;97156.25;;;12.15
27826;BMP280;15077;49.704;9.908;2023-04-15T02:42:07;97147.81;;;12.15
27826;BMP280;15077;49.704;9.908;2023-04-15T02:44:33;97152.91;;;12.15
27826;BMP280;15077;49.704;9.908;2023-04-15T02:47:01;97153.00;;;12.13
27826;BMP280;15077;49.704;9.908;2023-04-15T02:49:27;97154.69;;;12.13
27826;BMP280;15077;49.704;9.908;2023-04-15T02:51:55;97148.09;;;12.11
27826;BMP280;15077;49.704;9.908;2023-04-15T02:54:23;97142.19;;;12.10
27826;BMP280;15077;49.704;9.908;2023-04-15T02:56:49;97147.28;;;12.10
27826;BMP280;15077;49.704;9.908;2023-04-15T02:59:15;97140.56;;;12.09
27826;BMP280;15077;49.704;9.908;2023-04-15T03:01:41;97143.13;;;12.09
27826;BMP280;15077;49.704;9.908;2023-04-15T03:04:07;97145.66;;;12.09
27826;BMP280;15077;49.704;9.908;2023-04-15T03:06:34;97147.28;;;12.10
27826;BMP280;15077;49.704;9.908;2023-04-15T03:09:00;97144.72;;;12.10
27826;BMP280;15077;49.704;9.908;2023-04-15T03:11:28;97147.28;;;12.10
27826;BMP280;15077;49.704;9.908;2023-04-15T03:13:54;97144.72;;;12.10
27826;BMP280;15077;49.704;9.908;2023-04-15T03:16:23;97146.47;;;12.10
27826;BMP280;15077;49.704;9.908;2023-04-15T03:18:49;97149.00;;;12.10
27826;BMP280;15077;49.704;9.908;2023-04-15T03:21:15;97141.47;;;12.08
27826;BMP280;15077;49.704;9.908;2023-04-15T03:23:41;97143.22;;;12.08
27826;BMP280;15077;49.704;9.908;2023-04-15T03:26:07;97138.22;;;12.06
27826;BMP280;15077;49.704;9.908;2023-04-15T03:28:33;97143.41;;;12.05
27826;BMP280;15077;49.704;9.908;2023-04-15T03:30:59;97140.13;;;12.03
27826;BMP280;15077;49.704;9.908;2023-04-15T03:33:25;97144.56;;;11.99
27826;BMP280;15077;49.704;9.908;2023-04-15T03:35:52;97142.94;;;11.98
27826;BMP280;15077;49.704;9.908;2023-04-15T03:38:18;97143.03;;;11.97
27826;BMP280;15077;49.704;9.908;2023-04-15T03:40:45;97149.84;;;11.96
27826;BMP280;15077;49.704;9.908;2023-04-15T03:43:11;97141.28;;;11.97
27826;BMP280;15077;49.704;9.908;2023-04-15T03:45:37;97143.94;;;11.96
27826;BMP280;15077;49.704;9.908;2023-04-15T03:48:03;97151.44;;;11.97
27826;BMP280;15077;49.704;9.908;2023-04-15T03:50:29;97153.19;;;11.97
27826;BMP280;15077;49.704;9.908;2023-04-15T03:52:54;97153.94;;;11.99
27826;BMP280;15077;49.704;9.908;2023-04-15T03:55:20;97156.38;;;12.00
27826;BMP280;15077;49.704;9.908;2023-04-15T03:57:46;97142.84;;;12.00
27826;BMP280;15077;49.704;9.908;2023-04-15T04:00:12;97142.75;;;12.01
27826;BMP280;15077;49.704;9.908;2023-04-15T04:02:38;97141.16;;;12.00
27826;BMP280;15077;49.704;9.908;2023-04-15T04:05:04;97148.66;;;12.02
27826;BMP280;15077;49.704;9.908;2023-04-15T04:07:30;97143.59;;;12.02
27826;BMP280;15077;49.704;9.908;2023-04-15T04:09:57;97141.75;;;12.04
27826;BMP280;15077;49.704;9.908;2023-04-15T04:12:22;97143.50;;;12.03
27826;BMP280;15077;49.704;9.908;2023-04-15T04:14:48;97146.94;;;12.02
27826;BMP280;15077;49.704;9.908;2023-04-15T04:17:14;97143.59;;;12.02
27826;BMP280;15077;49.704;9.908;2023-04-15T04:19:39;97152.81;;;12.03
27826;BMP280;15077;49.704;9.908;2023-04-15T04:22:05;97158.81;;;12.02
27826;BMP280;15077;49.704;9.908;2023-04-15T04:24:31;97159.63;;;12.02
27826;BMP280;15077;49.704;9.908;2023-04-15T04:26:57;97159.63;;;12.02
27826;BMP280;15077;49.704;9.908;2023-04-15T04:29:23;97165.41;;;12.04
27826;BMP280;15077;49.704;9.908;2023-04-15T04:31:49;97162.88;;;12.04
27826;BMP280;15077;49.704;9.908;2023-04-15T04:34:15;97162.88;;;12.04
27826;BMP280;15077;49.704;9.908;2023-04-15T04:36:41;97161.97;;;12.05
27826;BMP280;15077;49.704;9.908;2023-04-15T04:39:06;97152.72;;;12.04
27826;BMP280;15077;49.704;9.908;2023-04-15T04:41:32;97151.13;;;12.03
27826;BMP280;15077;49.704;9.908;2023-04-15T04:43:58;97160.44;;;12.03
27826;BMP280;15077;49.704;9.908;2023-04-15T04:46:24;97158.00;;;12.01
27826;BMP280;15077;49.704;9.908;2023-04-15T04:48:50;97158.00;;;12.01
27826;BMP280;15077;49.704;9.908;2023-04-15T04:51:17;97150.00;;;12.07
27826;BMP280;15077;49.704;9.908;2023-04-15T04:53:43;97154.19;;;12.08
27826;BMP280;15077;49.704;9.908;2023-04-15T04:56:09;97160.16;;;12.07
27826;BMP280;15077;49.704;9.908;2023-04-15T04:58:35;97156.00;;;12.06
27826;BMP280;15077;49.704;9.908;2023-04-15T05:01:00;97147.66;;;12.04
27826;BMP280;15077;49.704;9.908;2023-04-15T05:03:27;97155.25;;;12.04
27826;BMP280;15077;49.704;9.908;2023-04-15T05:05:53;97150.19;;;12.04
27826;BMP280;15077;49.704;9.908;2023-04-15T05:08:19;97153.66;;;12.03
27826;BMP280;15077;49.704;9.908;2023-04-15T05:10:45;97153.75;;;12.02
27826;BMP280;15077;49.704;9.908;2023-04-15T05:13:11;97154.75;;;11.99
27826;BMP280;15077;49.704;9.908;2023-04-15T05:15:37;97151.44;;;11.97
27826;BMP280;15077;49.704;9.908;2023-04-15T05:18:05;97154.91;;;11.96
27826;BMP280;15077;49.704;9.908;2023-04-15T05:20:31;97151.44;;;11.97
27826;BMP280;15077;49.704;9.908;2023-04-15T05:22:57;97147.41;;;11.95
27826;BMP280;15077;49.704;9.908;2023-04-15T05:25:23;97149.00;;;11.96
27826;BMP280;15077;49.704;9.908;2023-04-15T05:27:48;97149.00;;;11.96
27826;BMP280;15077;49.704;9.908;2023-04-15T05:30:14;97156.47;;;11.99
27826;BMP280;15077;49.704;9.908;2023-04-15T05:32:40;97155.44;;;12.01
27826;BMP280;15077;49.704;9.908;2023-04-15T05:35:06;97151.13;;;12.03
27826;BMP280;15077;49.704;9.908;2023-04-15T05:37:32;97150.94;;;12.06
27826;BMP280;15077;49.704;9.908;2023-04-15T05:39:58;97150.75;;;12.09
27826;BMP280;15077;49.704;9.908;2023-04-15T05:42:23;97150.47;;;12.13
27826;BMP280;15077;49.704;9.908;2023-04-15T05:44:49;97147.72;;;12.16
27826;BMP280;15077;49.704;9.908;2023-04-15T05:47:15;97149.97;;;12.21
27826;BMP280;15077;49.704;9.908;2023-04-15T05:49:41;97156.50;;;12.25
27826;BMP280;15077;49.704;9.908;2023-04-15T05:52:07;97157.03;;;12.30
27826;BMP280;15077;49.704;9.908;2023-04-15T05:54:32;97160.19;;;12.33
27826;BMP280;15077;49.704;9.908;2023-04-15T05:56:58;97157.38;;;12.38
27826;BMP280;15077;49.704;9.908;2023-04-15T05:59:24;97162.25;;;12.41
27826;BMP280;15077;49.704;9.908;2023-04-15T06:01:49;97162.81;;;12.46
27826;BMP280;15077;49.704;9.908;2023-04-15T06:04:16;97170.06;;;12.52
27826;BMP280;15077;49.704;9.908;2023-04-15T06:06:42;97161.31;;;12.56
27826;BMP280;15077;49.704;9.908;2023-04-15T06:09:08;97169.47;;;12.60
27826;BMP280;15077;49.704;9.908;2023-04-15T06:11:33;97169.28;;;12.63
27826;BMP280;15077;49.704;9.908;2023-04-15T06:13:59;97167.25;;;12.68
27826;BMP280;15077;49.704;9.908;2023-04-15T06:16:25;97171.34;;;12.71
27826;BMP280;15077;49.704;9.908;2023-04-15T06:18:51;97171.75;;;12.77
27826;BMP280;15077;49.704;9.908;2023-04-15T06:21:17;97167.28;;;12.81
27826;BMP280;15077;49.704;9.908;2023-04-15T06:23:43;97169.66;;;12.84
27826;BMP280;15077;49.704;9.908;2023-04-15T06:26:10;97168.56;;;12.88
27826;BMP280;15077;49.704;9.908;2023-04-15T06:28:35;97170.81;;;12.92
27826;BMP280;15077;49.704;9.908;2023-04-15T06:31:02;97163.81;;;12.96
27826;BMP280;15077;49.704;9.908;2023-04-15T06:33:28;97165.34;;;12.98
27826;BMP280;15077;49.704;9.908;2023-04-15T06:35:53;97176.03;;;13.03
27826;BMP280;15077;49.704;9.908;2023-04-15T06:38:19;97168.22;;;13.06
27826;BMP280;15077;49.704;9.908;2023-04-15T06:40:46;97174.72;;;13.10
27826;BMP280;15077;49.704;9.908;2023-04-15T06:43:11;97179.41;;;13.16
27826;BMP280;15077;49.704;9.908;2023-04-15T06:45:37;97184.28;;;13.19
27826;BMP280;15077;49.704;9.908;2023-04-15T06:48:03;97184.94;;;13.22
27826;BMP280;15077;49.704;9.908;2023-04-15T06:50:29;97188.09;;;13.26
27826;BMP280;15077;49.704;9.908;2023-04-15T06:52:55;97185.34;;;13.29
27826;BMP280;15077;49.704;9.908;2023-04-15T06:55:21;97180.84;;;13.32
27826;BMP280;15077;49.704;9.908;2023-04-15T06:57:47;97184.03;;;13.36
27826;BMP280;15077;49.704;9.908;2023-04-15T07:00:13;97184.44;;;13.42
27826;BMP280;15077;49.704;9.908;2023-04-15T07:02:40;97176.50;;;13.47
27826;BMP280;15077;49.704;9.908;2023-04-15T07:05:06;97182.91;;;13.52
27826;BMP280;15077;49.704;9.908;2023-04-15T07:07:32;97180.06;;;13.57
27826;BMP280;15077;49.704;9.908;2023-04-15T07:09:57;97183.94;;;13.62
27826;BMP280;15077;49.704;9.908;2023-04-15T07:12:23;97178.53;;;13.66
27826;BMP280;15077;49.704;9.908;2023-04-15T07:14:49;97178.25;;;13.71
27826;BMP280;15077;49.704;9.908;2023-04-15T07:17:15;97178.63;;;13.77
27826;BMP280;15077;49.704;9.908;2023-04-15T07:19:41;97182.63;;;13.81
27826;BMP280;15077;49.704;9.908;2023-04-15T07:22:06;97181.50;;;13.85
27826;BMP280;15077;49.704;9.908;2023-04-15T07:24:32;97187.19;;;13.89
27826;BMP280;15077;49.704;9.908;2023-04-15T07:26:58;97182.69;;;13.92
27826;BMP280;15077;49.704;9.908;2023-04-15T07:29:24;97188.41;;;13.96
27826;BMP280;15077;49.704;9.908;2023-04-15T07:31:51;97195.75;;;14.00
27826;BMP280;15077;49.704;9.908;2023-04-15T07:34:18;97197.97;;;14.05
27826;BMP280;15077;49.704;9.908;2023-04-15T07:36:45;97192.72;;;14.07
27826;BMP280;15077;49.704;9.908;2023-04-15T07:39:15;97195.84;;;14.11
27826;BMP280;15077;49.704;9.908;2023-04-15T07:41:41;97193.09;;;14.14
27826;BMP280;15077;49.704;9.908;2023-04-15T07:44:06;97188.81;;;14.14
27826;BMP280;15077;49.704;9.908;2023-04-15T07:46:32;97200.31;;;14.20
27826;BMP280;15077;49.704;9.908;2023-04-15T07:48:58;97201.00;;;14.22
27826;BMP280;15077;49.704;9.908;2023-04-15T07:51:24;97201.63;;;14.25
27826;BMP280;15077;49.704;9.908;2023-04-15T07:53:50;97199.56;;;14.30
27826;BMP280;15077;49.704;9.908;2023-04-15T07:56:16;97200.19;;;14.34
27826;BMP280;15077;49.704;9.908;2023-04-15T07:58:42;97199.78;;;14.40
27826;BMP280;15077;49.704;9.908;2023-04-15T08:01:08;97199.56;;;14.43
27826;BMP280;15077;49.704;9.908;2023-04-15T08:03:33;97195.06;;;14.46
27826;BMP280;15077;49.704;9.908;2023-04-15T08:05:59;97199.84;;;14.51
27826;BMP280;15077;49.704;9.908;2023-04-15T08:08:25;97207.25;;;14.54
27826;BMP280;15077;49.704;9.908;2023-04-15T08:10:51;97195.94;;;14.57
27826;BMP280;15077;49.704;9.908;2023-04-15T08:13:17;97205.81;;;14.62
27826;BMP280;15077;49.704;9.908;2023-04-15T08:15:43;97195.41;;;14.65
27826;BMP280;15077;49.704;9.908;2023-04-15T08:18:09;97202.72;;;14.69
27826;BMP280;15077;49.704;9.908;2023-04-15T08:20:35;97204.13;;;14.73
27826;BMP280;15077;49.704;9.908;2023-04-15T08:23:02;97205.53;;;14.77
27826;BMP280;15077;49.704;9.908;2023-04-15T08:25:28;97203.50;;;14.82
27826;BMP280;15077;49.704;9.908;2023-04-15T08:27:56;97202.34;;;14.86
27826;BMP280;15077;49.704;9.908;2023-04-15T08:30:22;97195.31;;;14.90
27826;BMP280;15077;49.704;9.908;2023-04-15T08:32:49;97211.09;;;14.95
27826;BMP280;15077;49.704;9.908;2023-04-15T08:35:16;97215.84;;;14.99
27826;BMP280;15077;49.704;9.908;2023-04-15T08:37:42;97213.09;;;15.02
27826;BMP280;15077;49.704;9.908;2023-04-15T08:40:09;97206.00;;;15.05
27826;BMP280;15077;49.704;9.908;2023-04-15T08:42:41;97211.50;;;15.12
27826;BMP280;15077;49.704;9.908;2023-04-15T08:45:09;97216.66;;;15.23
27826;BMP280;15077;49.704;9.908;2023-04-15T08:47:38;97219.00;;;15.26
27826;BMP280;15077;49.704;9.908;2023-04-15T08:50:08;97222.06;;;15.31
27826;BMP280;15077;49.704;9.908;2023-04-15T08:52:35;97221.84;;;15.34
27826;BMP280;15077;49.704;9.908;2023-04-15T08:55:02;97230.19;;;15.36
27826;BMP280;15077;49.704;9.908;2023-04-15T08:57:28;97227.63;;;15.36
27826;BMP280;15077;49.704;9.908;2023-04-15T08:59:57;97233.44;;;15.38
27826;BMP280;15077;49.704;9.908;2023-04-15T09:02:25;97224.16;;;15.37
27826;BMP280;15077;49.704;9.908;2023-04-15T09:04:52;97229.16;;;15.38
27826;BMP280;15077;49.704;9.908;2023-04-15T09:07:18;97225.66;;;15.39
27826;BMP280;15077;49.704;9.908;2023-04-15T09:09:44;97223.94;;;15.40
27826;BMP280;15077;49.704;9.908;2023-04-15T09:12:11;97223.00;;;15.41
27826;BMP280;15077;49.704;9.908;2023-04-15T09:14:39;97222.78;;;15.44
27826;BMP280;15077;49.704;9.908;2023-04-15T09:17:09;97224.19;;;15.48
27826;BMP280;15077;49.704;9.908;2023-04-15T09:19:34;97220.25;;;15.54
27826;BMP280;15077;49.704;9.908;2023-04-15T09:22:01;97228.38;;;15.59
27826;BMP280;15077;49.704;9.908;2023-04-15T09:24:38;97232.94;;;15.67
27826;BMP280;15077;49.704;9.908;2023-04-15T09:27:04;97240.88;;;15.75
27826;BMP280;15077;49.704;9.908;2023-04-15T09:29:31;97233.53;;;15.81
27826;BMP280;15077;49.704;9.908;2023-04-15T09:32:18;97238.19;;;15.87
27826;BMP280;15077;49.704;9.908;2023-04-15T09:34:46;97234.16;;;15.96
27826;BMP280;15077;49.704;9.908;2023-04-15T09:37:12;97225.19;;;16.01
27826;BMP280;15077;49.704;9.908;2023-04-15T09:39:51;97231.72;;;16.05
27826;BMP280;15077;49.704;9.908;2023-04-15T09:42:18;97234.16;;;16.06
27826;BMP280;15077;49.704;9.908;2023-04-15T09:44:53;97244.94;;;16.10
27826;BMP280;15077;49.704;9.908;2023-04-15T09:47:30;97240.44;;;16.13
27826;BMP280;15077;49.704;9.908;2023-04-15T09:50:00;97250.44;;;16.16
27826;BMP280;15077;49.704;9.908;2023-04-15T09:52:27;97246.84;;;16.19
27826;BMP280;15077;49.704;9.908;2023-04-15T09:54:55;97251.72;;;16.22
27826;BMP280;15077;49.704;9.908;2023-04-15T09:57:21;97256.75;;;16.23
27826;BMP280;15077;49.704;9.908;2023-04-15T09:59:48;97249.66;;;16.27
27826;BMP280;15077;49.704;9.908;2023-04-15T10:02:15;97249.66;;;16.27
27826;BMP280;15077;49.704;9.908;2023-04-15T10:04:44;97253.13;;;16.26
27826;BMP280;15077;49.704;9.908;2023-04-15T10:07:11;97257.44;;;16.25
27826;BMP280;15077;49.704;9.908;2023-04-15T10:09:38;97255.69;;;16.26
27826;BMP280;15077;49.704;9.908;2023-04-15T10:12:04;97255.00;;;16.24
27826;BMP280;15077;49.704;9.908;2023-04-15T10:14:34;97253.22;;;16.24
27826;BMP280;15077;49.704;9.908;2023-04-15T10:17:04;97254.88;;;16.25
27826;BMP280;15077;49.704;9.908;2023-04-15T10:19:35;97252.44;;;16.24
27826;BMP280;15077;49.704;9.908;2023-04-15T10:22:02;97251.72;;;16.22
27826;BMP280;15077;49.704;9.908;2023-04-15T10:24:32;97256.81;;;16.22
27826;BMP280;15077;49.704;9.908;2023-04-15T10:26:59;97254.50;;;16.19
27826;BMP280;15077;49.704;9.908;2023-04-15T10:29:25;97252.06;;;16.17
27826;BMP280;15077;49.704;9.908;2023-04-15T10:31:58;97252.97;;;16.16
27826;BMP280;15077;49.704;9.908;2023-04-15T10:34:25;97255.53;;;16.16
27826;BMP280;15077;49.704;9.908;2023-04-15T10:36:55;97258.22;;;16.15
27826;BMP280;15077;49.704;9.908;2023-04-15T10:39:43;97261.22;;;16.09
27826;BMP280;15077;49.704;9.908;2023-04-15T10:42:14;97259.47;;;16.09
27826;BMP280;15077;49.704;9.908;2023-04-15T10:44:48;97265.63;;;16.07
27826;BMP280;15077;49.704;9.908;2023-04-15T10:47:18;97263.06;;;16.07
27826;BMP280;15077;49.704;9.908;2023-04-15T10:49:48;97262.38;;;16.05
27826;BMP280;15077;49.704;9.908;2023-04-15T10:52:17;97261.69;;;16.03
27826;BMP280;15077;49.704;9.908;2023-04-15T10:54:47;97275.72;;;15.87
27826;BMP280;15077;49.704;9.908;2023-04-15T10:57:20;97268.63;;;15.90
27826;BMP280;15077;49.704;9.908;2023-04-15T11:02:39;97282.88;;;15.82
27826;BMP280;15077;49.704;9.908;2023-04-15T11:05:05;97292.53;;;15.78
27826;BMP280;15077;49.704;9.908;2023-04-15T11:07:50;97286.25;;;15.71
27826;BMP280;15077;49.704;9.908;2023-04-15T11:12:56;97291.91;;;15.64
27826;BMP280;15077;49.704;9.908;2023-04-15T11:18:08;97295.81;;;15.57
27826;BMP280;15077;49.704;9.908;2023-04-15T11:20:35;97297.56;;;15.56
27826;BMP280;15077;49.704;9.908;2023-04-15T11:23:01;97293.38;;;15.55
27826;BMP280;15077;49.704;9.908;2023-04-15T11:25:30;97298.25;;;15.58
27826;BMP280;15077;49.704;9.908;2023-04-15T11:28:00;97294.09;;;15.57
27826;BMP280;15077;49.704;9.908;2023-04-15T11:30:28;97299.09;;;15.59
27826;BMP280;15077;49.704;9.908;2023-04-15T11:33:05;97294.78;;;15.59
27826;BMP280;15077;49.704;9.908;2023-04-15T11:35:33;97301.75;;;15.57
27826;BMP280;15077;49.704;9.908;2023-04-15T11:38:03;97319.63;;;15.57
27826;BMP280;15077;49.704;9.908;2023-04-15T11:40:30;97311.38;;;15.54
27826;BMP280;15077;49.704;9.908;2023-04-15T11:43:09;97306.47;;;15.51
27826;BMP280;15077;49.704;9.908;2023-04-15T11:48:21;97324.00;;;15.45
27826;BMP280;15077;49.704;9.908;2023-04-15T11:50:56;97324.22;;;15.42
27826;BMP280;15077;49.704;9.908;2023-04-15T11:53:23;97328.84;;;15.37
27826;BMP280;15077;49.704;9.908;2023-04-15T11:55:53;97325.56;;;15.35
27826;BMP280;15077;49.704;9.908;2023-04-15T11:58:22;97336.00;;;15.32
27826;BMP280;15077;49.704;9.908;2023-04-15T12:00:55;97339.50;;;15.31
27826;BMP280;15077;49.704;9.908;2023-04-15T12:03:29;97342.25;;;15.28
27826;BMP280;15077;49.704;9.908;2023-04-15T12:11:34;97348.72;;;15.21
27826;BMP280;15077;49.704;9.908;2023-04-15T12:14:09;97340.94;;;15.22
27826;BMP280;15077;49.704;9.908;2023-04-15T12:16:48;97346.03;;;15.22
27826;BMP280;15077;49.704;9.908;2023-04-15T12:19:23;97360.44;;;15.23
27826;BMP280;15077;49.704;9.908;2023-04-15T12:21:51;97364.63;;;15.24
27826;BMP280;15077;49.704;9.908;2023-04-15T12:24:21;97361.03;;;15.27
27826;BMP280;15077;49.704;9.908;2023-04-15T12:26:54;97358.50;;;15.27
27826;BMP280;15077;49.704;9.908;2023-04-15T12:29:27;97366.94;;;15.27
27826;BMP280;15077;49.704;9.908;2023-04-15T12:32:15;97373.09;;;15.25
27826;BMP280;15077;49.704;9.908;2023-04-15T12:34:48;97373.69;;;15.28
27826;BMP280;15077;49.704;9.908;2023-04-15T12:37:15;97378.00;;;15.28
27826;BMP280;15077;49.704;9.908;2023-04-15T12:39:43;97382.88;;;15.31
27826;BMP280;15077;49.704;9.908;2023-04-15T12:42:10;97385.44;;;15.31
27826;BMP280;15077;49.704;9.908;2023-04-15T12:44:37;97389.72;;;15.30
27826;BMP280;15077;49.704;9.908;2023-04-15T12:47:04;97390.75;;;15.28
27826;BMP280;15077;49.704;9.908;2023-04-15T12:49:31;97397.69;;;15.26
27826;BMP280;15077;49.704;9.908;2023-04-15T12:51:59;97395.34;;;15.23
27826;BMP280;15077;49.704;9.908;2023-04-15T12:54:26;97398.00;;;15.21
27826;BMP280;15077;49.704;9.908;2023-04-15T12:56:52;97399.75;;;15.21
27826;BMP280;15077;49.704;9.908;2023-04-15T12:59:19;97401.41;;;15.22
27826;BMP280;15077;49.704;9.908;2023-04-15T13:01:47;97398.13;;;15.20
27826;BMP280;15077;49.704;9.908;2023-04-15T13:04:13;97392.22;;;15.19
27826;BMP280;15077;49.704;9.908;2023-04-15T13:06:39;97399.03;;;15.19
27826;BMP280;15077;49.704;9.908;2023-04-15T13:09:05;97404.13;;;15.19
27826;BMP280;15077;49.704;9.908;2023-04-15T13:11:32;97403.41;;;15.17
27826;BMP280;15077;49.704;9.908;2023-04-15T13:14:04;97401.75;;;15.16
27826;BMP280;15077;49.704;9.908;2023-04-15T13:16:31;97413.81;;;15.14
27826;BMP280;15077;49.704;9.908;2023-04-15T13:19:01;97408.72;;;15.14
27826;BMP280;15077;49.704;9.908;2023-04-15T13:21:27;97411.59;;;15.09
27826;BMP280;15077;49.704;9.908;2023-04-15T13:23:53;97410.06;;;15.07
27826;BMP280;15077;49.704;9.908;2023-04-15T13:26:21;97415.25;;;15.05
27826;BMP280;15077;49.704;9.908;2023-04-15T13:28:47;97417.00;;;15.05
27826;BMP280;15077;49.704;9.908;2023-04-15T13:31:12;97412.81;;;15.04
27826;BMP280;15077;49.704;9.908;2023-04-15T13:33:38;97426.72;;;15.00
27826;BMP280;15077;49.704;9.908;2023-04-15T13:36:04;97419.97;;;14.99
27826;BMP280;15077;49.704;9.908;2023-04-15T13:38:30;97421.72;;;14.99
27826;BMP280;15077;49.704;9.908;2023-04-15T13:40:55;97428.34;;;15.01
27826;BMP280;15077;49.704;9.908;2023-04-15T13:43:21;97429.19;;;15.02
27826;BMP280;15077;49.704;9.908;2023-04-15T13:45:47;97433.22;;;15.04
27826;BMP280;15077;49.704;9.908;2023-04-15T13:48:14;97438.34;;;15.04
27826;BMP280;15077;49.704;9.908;2023-04-15T13:50:39;97434.06;;;15.04
27826;BMP280;15077;49.704;9.908;2023-04-15T13:53:10;97442.41;;;15.06
27826;BMP280;15077;49.704;9.908;2023-04-15T13:55:36;97443.44;;;15.04
27826;BMP280;15077;49.704;9.908;2023-04-15T13:58:09;97455.41;;;15.03
27826;BMP280;15077;49.704;9.908;2023-04-15T14:00:35;97453.06;;;15.01
27826;BMP280;15077;49.704;9.908;2023-04-15T14:03:01;97453.06;;;15.01
27826;BMP280;15077;49.704;9.908;2023-04-15T14:05:27;97460.09;;;14.97
27826;BMP280;15077;49.704;9.908;2023-04-15T14:07:53;97457.66;;;14.96
27826;BMP280;15077;49.704;9.908;2023-04-15T14:10:19;97453.47;;;14.95
27826;BMP280;15077;49.704;9.908;2023-04-15T14:12:44;97456.13;;;14.93
27826;BMP280;15077;49.704;9.908;2023-04-15T14:15:10;97456.13;;;14.93
27826;BMP280;15077;49.704;9.908;2023-04-15T14:17:36;97462.13;;;14.92
27826;BMP280;15077;49.704;9.908;2023-04-15T14:20:06;97456.31;;;14.90
27826;BMP280;15077;49.704;9.908;2023-04-15T14:22:32;97470.81;;;14.90
27826;BMP280;15077;49.704;9.908;2023-04-15T14:24:57;97470.94;;;14.88